createdAt,value
2018-08-17T00:00:58.838Z,0.00
2018-08-17T00:01:58.772Z,0.00
2018-08-17T00:02:58.689Z,0.00
2018-08-17T00:03:58.600Z,0.00
2018-08-17T00:04:58.528Z,0.00
2018-08-17T00:05:58.462Z,0.00
2018-08-17T00:06:58.380Z,0.00
2018-08-17T00:07:58.283Z,0.00
2018-08-17T00:08:58.222Z,0.00
2018-08-17T00:09:58.143Z,0.00
2018-08-17T00:10:59.112Z,0.00
2018-08-17T00:11:57.967Z,0.00
2018-08-17T00:14:39.887Z,0.00
2018-08-17T00:15:40.827Z,0.00
2018-08-17T00:16:39.738Z,0.00
2018-08-17T00:19:21.888Z,0.00
2018-08-17T00:20:21.824Z,0.00
2018-08-17T00:21:21.754Z,0.00
2018-08-17T00:22:21.663Z,0.00
2018-08-17T00:23:21.569Z,0.00
2018-08-17T00:24:21.497Z,0.00
2018-08-17T00:25:21.432Z,0.00
2018-08-17T00:26:21.362Z,0.00
2018-08-17T00:27:21.270Z,0.00
2018-08-17T00:28:21.240Z,0.00
2018-08-17T00:29:21.115Z,0.00
2018-08-17T00:32:03.406Z,0.00
2018-08-17T00:33:03.328Z,0.00
2018-08-17T00:34:03.315Z,0.00
2018-08-17T00:35:03.160Z,0.00
2018-08-17T00:36:03.113Z,0.00
2018-08-17T00:38:44.892Z,0.00
2018-08-17T00:39:44.830Z,0.00
2018-08-17T00:40:44.739Z,0.00
2018-08-17T00:41:44.695Z,0.00
2018-08-17T00:42:44.580Z,0.00
2018-08-17T00:45:26.412Z,0.00
2018-08-17T00:46:27.335Z,0.00
2018-08-17T00:47:26.252Z,0.00
2018-08-17T00:48:26.165Z,0.00
2018-08-17T00:49:26.076Z,0.00
2018-08-17T00:50:26.034Z,0.00
2018-08-17T00:51:25.971Z,0.00
2018-08-17T00:52:26.873Z,0.00
2018-08-17T00:53:25.768Z,0.00
2018-08-17T00:54:25.699Z,0.00
2018-08-17T00:55:25.660Z,0.00
2018-08-17T00:56:25.551Z,0.00
2018-08-17T00:57:25.480Z,0.00
2018-08-17T00:58:25.392Z,0.00
2018-08-17T00:59:25.299Z,0.00
2018-08-17T01:00:25.242Z,0.00
2018-08-17T01:01:25.143Z,0.00
2018-08-17T01:02:26.091Z,0.00
2018-08-17T01:03:24.984Z,0.00
2018-08-17T01:04:24.911Z,0.00
2018-08-17T01:05:24.845Z,0.00
2018-08-17T01:08:06.921Z,0.00
2018-08-17T01:09:06.826Z,0.00
2018-08-17T01:10:06.748Z,0.00
2018-08-17T01:11:06.674Z,0.00
2018-08-17T01:12:06.619Z,0.00
2018-08-17T01:13:06.512Z,0.00
2018-08-17T01:14:06.435Z,0.00
2018-08-17T01:15:06.356Z,0.00
2018-08-17T01:16:06.274Z,0.00
2018-08-17T01:18:48.446Z,0.00
2018-08-17T01:19:48.330Z,0.00
2018-08-17T01:20:48.260Z,0.00
2018-08-17T01:21:48.182Z,0.00
2018-08-17T01:22:48.112Z,0.00
2018-08-17T01:25:29.904Z,0.00
2018-08-17T01:26:29.833Z,0.00
2018-08-17T01:27:29.748Z,0.00
2018-08-17T01:28:30.711Z,0.00
2018-08-17T01:29:29.587Z,0.00
2018-08-17T01:30:29.524Z,0.00
2018-08-17T01:31:29.444Z,0.00
2018-08-17T01:32:29.379Z,0.00
2018-08-17T01:33:29.297Z,0.00
2018-08-17T01:34:29.233Z,0.00
2018-08-17T01:35:29.126Z,0.00
2018-08-17T01:36:29.050Z,0.00
2018-08-17T01:37:28.968Z,0.00
2018-08-17T01:38:28.918Z,0.00
2018-08-17T01:39:28.832Z,0.00
2018-08-17T01:40:28.751Z,0.00
2018-08-17T01:41:28.649Z,0.00
2018-08-17T01:44:10.932Z,0.00
2018-08-17T01:45:10.860Z,0.00
2018-08-17T01:46:10.758Z,0.00
2018-08-17T01:47:10.688Z,0.00
2018-08-17T01:48:10.625Z,0.00
2018-08-17T01:50:52.425Z,0.00
2018-08-17T01:51:52.345Z,0.00
2018-08-17T01:52:52.253Z,0.00
2018-08-17T01:53:53.207Z,0.00
2018-08-17T01:54:52.160Z,0.00
2018-08-17T01:55:52.021Z,0.00
2018-08-17T01:56:51.936Z,0.00
2018-08-17T01:57:51.871Z,0.00
2018-08-17T01:58:51.798Z,0.00
2018-08-17T01:59:52.739Z,0.00
2018-08-17T02:00:51.628Z,0.00
2018-08-17T02:01:51.581Z,0.00
2018-08-17T02:02:51.467Z,0.00
2018-08-17T02:03:52.419Z,0.00
2018-08-17T02:04:51.352Z,0.00
2018-08-17T02:05:51.237Z,0.00
2018-08-17T02:06:51.164Z,0.00
2018-08-17T02:07:51.079Z,0.00
2018-08-17T02:08:51.014Z,0.00
2018-08-17T02:09:50.930Z,0.00
2018-08-17T02:10:50.848Z,0.00
2018-08-17T02:11:50.761Z,0.00
2018-08-17T02:12:50.683Z,0.00
2018-08-17T02:13:50.632Z,0.00
2018-08-17T02:14:50.589Z,0.00
2018-08-17T02:15:50.456Z,0.00
2018-08-17T02:16:50.379Z,0.00
2018-08-17T02:19:32.465Z,0.00
2018-08-17T02:22:14.426Z,0.00
2018-08-17T02:23:14.346Z,0.00
2018-08-17T02:24:14.300Z,0.00
2018-08-17T02:25:14.200Z,0.00
2018-08-17T02:26:14.106Z,0.00
2018-08-17T02:27:14.040Z,0.00
2018-08-17T02:28:13.951Z,0.00
2018-08-17T02:29:13.898Z,0.00
2018-08-17T02:30:13.797Z,0.00
2018-08-17T02:31:13.724Z,0.00
2018-08-17T02:32:13.643Z,0.00
2018-08-17T02:34:55.942Z,0.00
2018-08-17T02:35:55.856Z,0.00
2018-08-17T02:36:55.810Z,0.00
2018-08-17T02:39:37.930Z,0.00
2018-08-17T02:40:37.850Z,0.00
2018-08-17T02:41:37.799Z,0.00
2018-08-17T02:42:37.692Z,0.00
2018-08-17T02:43:37.625Z,0.00
2018-08-17T02:44:37.549Z,0.00
2018-08-17T02:45:37.466Z,0.00
2018-08-17T02:46:37.406Z,0.00
2018-08-17T02:47:37.297Z,0.00
2018-08-17T02:48:37.250Z,0.00
2018-08-17T02:49:37.135Z,0.00
2018-08-17T02:50:37.089Z,0.00
2018-08-17T02:51:37.009Z,0.00
2018-08-17T02:52:36.901Z,0.00
2018-08-17T02:53:36.832Z,0.00
2018-08-17T02:54:36.747Z,0.00
2018-08-17T02:55:36.664Z,0.00
2018-08-17T02:56:36.607Z,0.00
2018-08-17T02:57:36.513Z,0.00
2018-08-17T02:58:36.433Z,0.00
2018-08-17T02:59:36.411Z,0.00
2018-08-17T03:02:18.453Z,0.00
2018-08-17T03:05:00.429Z,0.00
2018-08-17T03:06:00.380Z,0.00
2018-08-17T03:07:00.278Z,0.00
2018-08-17T03:08:00.211Z,0.00
2018-08-17T03:09:00.144Z,0.00
2018-08-17T03:10:00.050Z,0.00
2018-08-17T03:10:59.982Z,0.00
2018-08-17T03:12:00.899Z,0.00
2018-08-17T03:12:59.817Z,0.00
2018-08-17T03:13:59.753Z,0.00
2018-08-17T03:14:59.648Z,0.00
2018-08-17T03:15:59.592Z,0.00
2018-08-17T03:16:59.488Z,0.00
2018-08-17T03:17:59.423Z,0.00
2018-08-17T03:18:59.391Z,0.00
2018-08-17T03:21:41.438Z,0.00
2018-08-17T03:22:41.372Z,0.00
2018-08-17T03:23:41.297Z,0.00
2018-08-17T03:24:41.214Z,0.00
2018-08-17T03:25:41.127Z,0.00
2018-08-17T03:26:41.054Z,0.00
2018-08-17T03:27:40.983Z,0.00
2018-08-17T03:28:40.924Z,0.00
2018-08-17T03:29:40.826Z,0.00
2018-08-17T03:30:40.735Z,0.00
2018-08-17T03:31:40.652Z,0.00
2018-08-17T03:32:40.586Z,0.00
2018-08-17T03:33:40.519Z,0.00
2018-08-17T03:34:41.434Z,0.00
2018-08-17T03:35:40.339Z,0.00
2018-08-17T03:38:22.452Z,0.00
2018-08-17T03:39:23.386Z,0.00
2018-08-17T03:40:22.282Z,0.00
2018-08-17T03:43:04.444Z,0.00
2018-08-17T03:44:04.398Z,0.00
2018-08-17T03:45:04.296Z,0.00
2018-08-17T03:46:04.217Z,0.00
2018-08-17T03:47:04.127Z,0.00
2018-08-17T03:48:04.057Z,0.00
2018-08-17T03:49:04.005Z,0.00
2018-08-17T03:50:03.918Z,0.00
2018-08-17T03:51:03.815Z,4.00
2018-08-17T03:52:03.742Z,4.00
2018-08-17T03:53:03.654Z,0.00
2018-08-17T03:54:03.578Z,4.00
2018-08-17T03:55:03.527Z,4.00
2018-08-17T03:56:03.433Z,8.00
2018-08-17T03:57:03.333Z,4.00
2018-08-17T03:59:45.591Z,8.00
2018-08-17T04:00:46.411Z,8.00
2018-08-17T04:01:45.299Z,12.00
2018-08-17T04:04:27.456Z,16.00
2018-08-17T04:05:27.388Z,16.00
2018-08-17T04:06:27.302Z,20.00
2018-08-17T04:09:09.453Z,32.00
2018-08-17T04:11:51.478Z,44.00
2018-08-17T04:12:51.376Z,48.00
2018-08-17T04:13:51.310Z,56.00
2018-08-17T04:14:51.220Z,60.00
2018-08-17T04:15:51.168Z,60.00
2018-08-17T04:16:51.068Z,64.00
2018-08-17T04:17:50.975Z,68.00
2018-08-17T04:20:33.559Z,92.00
2018-08-17T04:21:32.953Z,108.00
2018-08-17T04:22:32.803Z,124.00
2018-08-17T04:23:32.740Z,136.00
2018-08-17T04:24:32.635Z,152.00
2018-08-17T04:25:32.568Z,164.00
2018-08-17T04:26:32.527Z,176.00
2018-08-17T04:29:14.462Z,220.00
2018-08-17T04:30:14.384Z,236.00
2018-08-17T04:31:14.324Z,244.00
2018-08-17T04:32:14.257Z,240.00
2018-08-17T04:33:14.139Z,224.00
2018-08-17T04:34:14.071Z,208.00
2018-08-17T04:35:13.981Z,192.00
2018-08-17T04:36:14.926Z,176.00
2018-08-17T04:37:13.839Z,172.00
2018-08-17T04:38:13.763Z,172.00
2018-08-17T04:39:13.668Z,160.00
2018-08-17T04:40:13.723Z,148.00
2018-08-17T04:41:13.543Z,140.00
2018-08-17T04:43:55.474Z,124.00
2018-08-17T04:44:55.392Z,112.00
2018-08-17T04:45:55.306Z,104.00
2018-08-17T04:46:55.270Z,104.00
2018-08-17T04:47:55.164Z,108.00
2018-08-17T04:48:55.093Z,120.00
2018-08-17T04:49:54.997Z,148.00
2018-08-17T04:50:54.922Z,184.00
2018-08-17T04:51:54.860Z,236.00
2018-08-17T04:52:55.796Z,308.00
2018-08-17T04:53:54.673Z,388.00
2018-08-17T04:54:54.634Z,468.00
2018-08-17T04:55:54.521Z,568.00
2018-08-17T04:56:54.445Z,632.00
2018-08-17T04:57:54.390Z,708.00
2018-08-17T04:58:54.294Z,800.00
2018-08-17T04:59:54.211Z,856.00
2018-08-17T05:02:36.472Z,888.00
2018-08-17T05:03:36.419Z,876.00
2018-08-17T05:04:36.313Z,908.00
2018-08-17T05:05:36.256Z,956.00
2018-08-17T05:06:36.154Z,968.00
2018-08-17T05:07:36.102Z,952.00
2018-08-17T05:08:36.016Z,896.00
2018-08-17T05:09:35.928Z,812.00
2018-08-17T05:10:35.839Z,740.00
2018-08-17T05:11:35.772Z,680.00
2018-08-17T05:12:35.682Z,628.00
2018-08-17T05:13:35.695Z,576.00
2018-08-17T05:14:35.532Z,520.00
2018-08-17T05:15:35.483Z,480.00
2018-08-17T05:16:35.364Z,452.00
2018-08-17T05:17:35.298Z,432.00
2018-08-17T05:18:35.232Z,408.00
2018-08-17T05:19:35.134Z,388.00
2018-08-17T05:20:35.046Z,376.00
2018-08-17T05:21:35.094Z,340.00
2018-08-17T05:22:34.889Z,288.00
2018-08-17T05:23:34.841Z,248.00
2018-08-17T05:24:34.738Z,216.00
2018-08-17T05:25:34.795Z,212.00
2018-08-17T05:26:34.582Z,216.00
2018-08-17T05:27:34.522Z,228.00
2018-08-17T05:28:34.434Z,240.00
2018-08-17T05:29:34.362Z,260.00
2018-08-17T05:30:34.279Z,288.00
2018-08-17T05:31:34.193Z,332.00
2018-08-17T05:32:34.102Z,380.00
2018-08-17T05:33:34.044Z,392.00
2018-08-17T05:34:33.944Z,384.00
2018-08-17T05:35:33.889Z,364.00
2018-08-17T05:36:33.784Z,340.00
2018-08-17T05:37:33.730Z,312.00
2018-08-17T05:38:33.644Z,292.00
2018-08-17T05:39:33.589Z,272.00
2018-08-17T05:40:33.475Z,264.00
2018-08-17T05:41:33.401Z,260.00
2018-08-17T05:42:33.324Z,264.00
2018-08-17T05:43:33.239Z,268.00
2018-08-17T05:44:33.189Z,272.00
2018-08-17T05:45:33.079Z,292.00
2018-08-17T05:46:33.010Z,304.00
2018-08-17T05:49:15.002Z,340.00
2018-08-17T05:50:14.909Z,344.00
2018-08-17T05:51:14.834Z,352.00
2018-08-17T05:52:14.764Z,368.00
2018-08-17T05:53:14.668Z,380.00
2018-08-17T05:54:15.617Z,396.00
2018-08-17T05:55:14.542Z,408.00
2018-08-17T05:56:14.476Z,396.00
2018-08-17T05:57:14.364Z,376.00
2018-08-17T05:59:56.512Z,312.00
2018-08-17T06:02:38.503Z,296.00
2018-08-17T06:03:38.429Z,292.00
2018-08-17T06:04:38.351Z,288.00
2018-08-17T06:05:38.313Z,284.00
2018-08-17T06:06:38.173Z,276.00
2018-08-17T06:07:38.099Z,272.00
2018-08-17T06:08:38.029Z,264.00
2018-08-17T06:11:20.355Z,248.00
2018-08-17T06:12:19.925Z,244.00
2018-08-17T06:13:19.835Z,244.00
2018-08-17T06:14:19.774Z,236.00
2018-08-17T06:15:19.681Z,224.00
2018-08-17T06:16:20.614Z,216.00
2018-08-17T06:17:19.517Z,212.00
2018-08-17T06:18:19.446Z,212.00
2018-08-17T06:19:19.417Z,220.00
2018-08-17T06:20:19.291Z,228.00
2018-08-17T06:21:19.377Z,240.00
2018-08-17T06:22:19.139Z,256.00
2018-08-17T06:23:19.050Z,272.00
2018-08-17T06:24:18.967Z,276.00
2018-08-17T06:25:18.884Z,284.00
2018-08-17T06:26:18.868Z,284.00
2018-08-17T06:27:18.743Z,292.00
2018-08-17T06:28:18.652Z,300.00
2018-08-17T06:29:18.573Z,304.00
2018-08-17T06:30:18.522Z,304.00
2018-08-17T06:31:18.421Z,308.00
2018-08-17T06:32:18.372Z,308.00
2018-08-17T06:33:18.262Z,308.00
2018-08-17T06:36:00.509Z,304.00
2018-08-17T06:37:00.469Z,308.00
2018-08-17T06:38:00.336Z,316.00
2018-08-17T06:39:00.273Z,328.00
2018-08-17T06:40:00.205Z,332.00
2018-08-17T06:41:00.110Z,336.00
2018-08-17T06:42:00.039Z,344.00
2018-08-17T06:42:59.949Z,356.00
2018-08-17T06:43:59.879Z,368.00
2018-08-17T06:46:42.008Z,396.00
2018-08-17T06:47:42.000Z,412.00
2018-08-17T06:48:41.857Z,428.00
2018-08-17T06:51:24.057Z,504.00
2018-08-17T06:52:24.962Z,544.00
2018-08-17T06:53:23.855Z,576.00
2018-08-17T06:54:23.767Z,624.00
2018-08-17T06:55:23.687Z,716.00
2018-08-17T06:58:05.525Z,1084.00
2018-08-17T06:59:05.506Z,1224.00
2018-08-17T07:00:05.353Z,1408.00
2018-08-17T07:01:05.281Z,1592.00
2018-08-17T07:02:05.178Z,1760.00
2018-08-17T07:03:05.145Z,1808.00
2018-08-17T07:04:05.044Z,1784.00
2018-08-17T07:05:04.964Z,1756.00
2018-08-17T07:06:04.864Z,1808.00
2018-08-17T07:07:04.822Z,1888.00
2018-08-17T07:08:04.733Z,2004.00
2018-08-17T07:09:04.782Z,2164.00
2018-08-17T07:10:04.556Z,2400.00
2018-08-17T07:11:04.482Z,2604.00
2018-08-17T07:12:04.404Z,2800.00
2018-08-17T07:13:04.383Z,3204.00
2018-08-17T07:14:04.261Z,3640.00
2018-08-17T07:15:04.162Z,4144.00
2018-08-17T07:16:04.068Z,4636.00
2018-08-17T07:17:03.993Z,5244.00
2018-08-17T07:18:03.913Z,5700.00
2018-08-17T07:19:03.885Z,5724.00
2018-08-17T07:20:03.750Z,5680.00
2018-08-17T07:21:03.746Z,5512.00
2018-08-17T07:22:03.646Z,5200.00
2018-08-17T07:23:03.529Z,4860.00
2018-08-17T07:24:03.481Z,4524.00
2018-08-17T07:25:03.382Z,4160.00
2018-08-17T07:26:03.280Z,3876.00
2018-08-17T07:27:03.196Z,3536.00
2018-08-17T07:28:03.138Z,3296.00
2018-08-17T07:29:03.072Z,3156.00
2018-08-17T07:30:02.976Z,3056.00
2018-08-17T07:32:45.016Z,2720.00
2018-08-17T07:35:27.029Z,2612.00
2018-08-17T07:36:26.951Z,2592.00
2018-08-17T07:37:26.858Z,2568.00
2018-08-17T07:38:26.782Z,2596.00
2018-08-17T07:39:26.776Z,2652.00
2018-08-17T07:40:26.631Z,2700.00
2018-08-17T07:41:26.545Z,2720.00
2018-08-17T07:44:08.517Z,3184.00
2018-08-17T07:45:08.466Z,3508.00
2018-08-17T07:46:08.385Z,3952.00
2018-08-17T07:47:08.296Z,4608.00
2018-08-17T07:48:08.316Z,5408.00
2018-08-17T07:49:08.138Z,6184.00
2018-08-17T07:50:08.096Z,7008.00
2018-08-17T07:51:08.036Z,8000.00
2018-08-17T07:52:07.883Z,9116.00
2018-08-17T07:53:07.814Z,10176.00
2018-08-17T07:54:07.742Z,11000.00
2018-08-17T07:56:50.031Z,11912.00
2018-08-17T07:57:49.944Z,11624.00
2018-08-17T07:58:49.984Z,11352.00
2018-08-17T07:59:49.996Z,11572.00
2018-08-17T08:00:49.706Z,10492.00
2018-08-17T08:01:49.664Z,9616.00
2018-08-17T08:02:49.593Z,9028.00
2018-08-17T08:03:49.494Z,8652.00
2018-08-17T08:04:49.394Z,8376.00
2018-08-17T08:05:49.337Z,8300.00
2018-08-17T08:06:49.234Z,8176.00
2018-08-17T08:07:49.175Z,8048.00
2018-08-17T08:08:49.079Z,7996.00
2018-08-17T08:11:31.072Z,9160.00
2018-08-17T08:12:30.955Z,9536.00
2018-08-17T08:13:30.912Z,8980.00
2018-08-17T08:14:30.821Z,8476.00
2018-08-17T08:15:30.711Z,7400.00
2018-08-17T08:18:12.552Z,5164.00
2018-08-17T08:19:12.463Z,4424.00
2018-08-17T08:20:12.452Z,4116.00
2018-08-17T08:21:12.314Z,3704.00
2018-08-17T08:22:12.278Z,3204.00
2018-08-17T08:23:12.157Z,3084.00
2018-08-17T08:24:12.081Z,3240.00
2018-08-17T08:25:11.980Z,3596.00
2018-08-17T08:26:11.908Z,4160.00
2018-08-17T08:27:12.874Z,4584.00
2018-08-17T08:28:11.738Z,4312.00
2018-08-17T08:29:11.689Z,3932.00
2018-08-17T08:30:11.597Z,3788.00
2018-08-17T08:32:53.597Z,5560.00
2018-08-17T08:33:53.478Z,6936.00
2018-08-17T08:34:53.372Z,8696.00
2018-08-17T08:35:53.328Z,8820.00
2018-08-17T08:36:53.234Z,7764.00
2018-08-17T08:37:53.142Z,7056.00
2018-08-17T08:38:53.075Z,7000.00
2018-08-17T08:41:35.050Z,6368.00
2018-08-17T08:42:35.006Z,7312.00
2018-08-17T08:43:34.891Z,7296.00
2018-08-17T08:44:34.835Z,5640.00
2018-08-17T08:45:34.766Z,5204.00
2018-08-17T08:46:34.662Z,5024.00
2018-08-17T08:47:34.600Z,4944.00
2018-08-17T08:48:34.529Z,5172.00
2018-08-17T08:49:34.434Z,5536.00
2018-08-17T08:50:34.342Z,5772.00
2018-08-17T08:51:34.274Z,5240.00
2018-08-17T08:54:16.772Z,4140.00
2018-08-17T08:55:16.468Z,3784.00
2018-08-17T08:56:16.410Z,3172.00
2018-08-17T08:57:16.311Z,3160.00
2018-08-17T08:58:16.237Z,3764.00
2018-08-17T08:59:16.187Z,4668.00
2018-08-17T09:00:16.092Z,5308.00
2018-08-17T09:01:16.015Z,5656.00
2018-08-17T09:02:15.927Z,4108.00
2018-08-17T09:03:16.876Z,3400.00
2018-08-17T09:04:15.760Z,2644.00
2018-08-17T09:06:58.045Z,2748.00
2018-08-17T09:07:57.996Z,2900.00
2018-08-17T09:08:57.928Z,3192.00
2018-08-17T09:09:57.818Z,3356.00
2018-08-17T09:10:57.736Z,3656.00
2018-08-17T09:11:57.652Z,3832.00
2018-08-17T09:12:57.569Z,3876.00
2018-08-17T09:13:57.514Z,3888.00
2018-08-17T09:14:57.440Z,4544.00
2018-08-17T09:15:57.368Z,4992.00
2018-08-17T09:16:57.258Z,4968.00
2018-08-17T09:17:57.183Z,4884.00
2018-08-17T09:18:57.099Z,4584.00
2018-08-17T09:19:57.041Z,4240.00
2018-08-17T09:20:56.965Z,4032.00
2018-08-17T09:21:56.876Z,4088.00
2018-08-17T09:22:56.788Z,4308.00
2018-08-17T09:23:56.789Z,4412.00
2018-08-17T09:24:56.633Z,4444.00
2018-08-17T09:25:56.563Z,4692.00
2018-08-17T09:26:56.472Z,5580.00
2018-08-17T09:29:38.577Z,6868.00
2018-08-17T09:30:38.500Z,7424.00
2018-08-17T09:31:38.426Z,7496.00
2018-08-17T09:32:38.341Z,6744.00
2018-08-17T09:33:38.232Z,6292.00
2018-08-17T09:34:38.179Z,6056.00
2018-08-17T09:35:38.104Z,5728.00
2018-08-17T09:36:38.018Z,5248.00
2018-08-17T09:37:37.942Z,4648.00
2018-08-17T09:38:37.859Z,4544.00
2018-08-17T09:39:37.762Z,4476.00
2018-08-17T09:40:37.712Z,4200.00
2018-08-17T09:41:37.639Z,4244.00
2018-08-17T09:42:37.565Z,4640.00
2018-08-17T09:43:37.449Z,4440.00
2018-08-17T09:44:37.381Z,4684.00
2018-08-17T09:45:37.328Z,4412.00
2018-08-17T09:48:19.557Z,5004.00
2018-08-17T09:49:19.483Z,4448.00
2018-08-17T09:50:19.464Z,4312.00
2018-08-17T09:51:19.372Z,3996.00
2018-08-17T09:52:19.240Z,3796.00
2018-08-17T09:53:19.175Z,3188.00
2018-08-17T09:54:19.097Z,2388.00
2018-08-17T09:55:19.106Z,1956.00
2018-08-17T09:56:18.953Z,2008.00
2018-08-17T09:57:18.899Z,2188.00
2018-08-17T09:58:18.761Z,2224.00
2018-08-17T09:59:18.708Z,2640.00
2018-08-17T10:00:18.640Z,2636.00
2018-08-17T10:01:19.557Z,4100.00
2018-08-17T10:02:18.453Z,4632.00
2018-08-17T10:03:18.387Z,4480.00
2018-08-17T10:04:18.301Z,4568.00
2018-08-17T10:05:18.227Z,5548.00
2018-08-17T10:06:18.172Z,7280.00
2018-08-17T10:07:18.062Z,8488.00
2018-08-17T10:08:18.010Z,8960.00
2018-08-17T10:09:17.919Z,9144.00
2018-08-17T10:10:17.841Z,10144.00
2018-08-17T10:13:00.100Z,18720.00
2018-08-17T10:13:59.991Z,21856.00
2018-08-17T10:14:59.907Z,32544.00
2018-08-17T10:15:59.836Z,79872.00
2018-08-17T10:16:59.769Z,57952.00
2018-08-17T10:17:59.674Z,39552.00
2018-08-17T10:18:59.597Z,30720.00
2018-08-17T10:19:59.547Z,18528.00
2018-08-17T10:20:59.504Z,15452.00
2018-08-17T10:22:00.742Z,13908.00
2018-08-17T10:22:59.282Z,12040.00
2018-08-17T10:23:59.227Z,11260.00
2018-08-17T10:24:59.124Z,11284.00
2018-08-17T10:25:59.071Z,12456.00
2018-08-17T10:26:59.007Z,14484.00
2018-08-17T10:27:58.923Z,15264.00
2018-08-17T10:28:58.828Z,14092.00
2018-08-17T10:29:58.737Z,12636.00
2018-08-17T10:30:58.670Z,10836.00
2018-08-17T10:31:58.598Z,10688.00
2018-08-17T10:32:58.529Z,10668.00
2018-08-17T10:33:58.504Z,8564.00
2018-08-17T10:34:58.357Z,5900.00
2018-08-17T10:37:40.599Z,3652.00
2018-08-17T10:38:40.506Z,3524.00
2018-08-17T10:39:40.417Z,4080.00
2018-08-17T10:40:40.377Z,4568.00
2018-08-17T10:41:40.264Z,5268.00
2018-08-17T10:44:22.623Z,12164.00
2018-08-17T10:45:22.504Z,15216.00
2018-08-17T10:46:22.424Z,33792.00
2018-08-17T10:47:22.346Z,41184.00
2018-08-17T10:48:22.308Z,45344.00
2018-08-17T10:49:22.211Z,30880.00
2018-08-17T10:50:22.107Z,28928.00
2018-08-17T10:51:22.041Z,15356.00
2018-08-17T10:52:21.974Z,7420.00
2018-08-17T10:53:21.904Z,6272.00
2018-08-17T10:54:21.821Z,5628.00
2018-08-17T10:57:04.076Z,7852.00
2018-08-17T10:58:04.048Z,9820.00
2018-08-17T10:59:03.938Z,10896.00
2018-08-17T11:00:03.851Z,10412.00
2018-08-17T11:01:03.767Z,10472.00
2018-08-17T11:02:03.703Z,11328.00
2018-08-17T11:03:03.613Z,10440.00
2018-08-17T11:04:03.562Z,9040.00
2018-08-17T11:05:03.473Z,7140.00
2018-08-17T11:06:03.437Z,6380.00
2018-08-17T11:07:03.307Z,6368.00
2018-08-17T11:09:45.611Z,3624.00
2018-08-17T11:10:45.528Z,2920.00
2018-08-17T11:11:45.431Z,3512.00
2018-08-17T11:12:45.364Z,4908.00
2018-08-17T11:13:45.277Z,6068.00
2018-08-17T11:14:45.205Z,7680.00
2018-08-17T11:15:45.191Z,8192.00
2018-08-17T11:16:45.047Z,10008.00
2018-08-17T11:17:44.969Z,14248.00
2018-08-17T11:18:44.898Z,14164.00
2018-08-17T11:19:44.832Z,15316.00
2018-08-17T11:20:44.761Z,16008.00
2018-08-17T11:21:44.676Z,14300.00
2018-08-17T11:24:26.607Z,12224.00
2018-08-17T11:25:26.555Z,11380.00
2018-08-17T11:26:26.459Z,11168.00
2018-08-17T11:27:26.373Z,10952.00
2018-08-17T11:28:26.286Z,10844.00
2018-08-17T11:29:26.203Z,11472.00
2018-08-17T11:30:26.138Z,13248.00
2018-08-17T11:33:08.111Z,12164.00
2018-08-17T11:34:08.027Z,12428.00
2018-08-17T11:35:07.962Z,12364.00
2018-08-17T11:37:50.093Z,10796.00
2018-08-17T11:38:50.033Z,9564.00
2018-08-17T11:39:49.959Z,8128.00
2018-08-17T11:40:50.907Z,6872.00
2018-08-17T11:41:49.790Z,7532.00
2018-08-17T11:42:49.716Z,8612.00
2018-08-17T11:43:49.629Z,8232.00
2018-08-17T11:46:31.814Z,7916.00
2018-08-17T11:47:31.741Z,7316.00
2018-08-17T11:48:32.226Z,7120.00
2018-08-17T11:49:32.210Z,6836.00
2018-08-17T11:50:32.200Z,7796.00
2018-08-17T11:51:31.220Z,9064.00
2018-08-17T11:52:31.138Z,10468.00
2018-08-17T11:53:31.097Z,11196.00
2018-08-17T11:54:30.980Z,12700.00
2018-08-17T11:55:30.939Z,13040.00
2018-08-17T11:56:30.833Z,12984.00
2018-08-17T11:57:30.769Z,13168.00
2018-08-17T11:58:30.684Z,12768.00
2018-08-17T11:59:30.615Z,14896.00
2018-08-17T12:00:30.516Z,25408.00
2018-08-17T12:01:31.460Z,20992.00
2018-08-17T12:02:30.377Z,15912.00
2018-08-17T12:03:30.310Z,15636.00
2018-08-17T12:04:30.200Z,14840.00
2018-08-17T12:05:30.131Z,15024.00
2018-08-17T12:06:30.086Z,15612.00
2018-08-17T12:07:29.981Z,16640.00
2018-08-17T12:08:29.956Z,16896.00
2018-08-17T12:09:29.831Z,14304.00
2018-08-17T12:10:29.770Z,10760.00
2018-08-17T12:11:30.691Z,8424.00
2018-08-17T12:12:29.609Z,6904.00
2018-08-17T12:13:29.547Z,6912.00
2018-08-17T12:14:29.433Z,6848.00
2018-08-17T12:15:29.383Z,6036.00
2018-08-17T12:16:29.308Z,5304.00
2018-08-17T12:17:29.233Z,5604.00
2018-08-17T12:18:29.138Z,6764.00
2018-08-17T12:19:29.063Z,7004.00
2018-08-17T12:20:28.985Z,7168.00
2018-08-17T12:21:28.933Z,7840.00
2018-08-17T12:22:28.819Z,9912.00
2018-08-17T12:23:28.750Z,10736.00
2018-08-17T12:24:28.801Z,10800.00
2018-08-17T12:25:28.605Z,11856.00
2018-08-17T12:26:28.543Z,16288.00
2018-08-17T12:27:28.458Z,16128.00
2018-08-17T12:28:28.398Z,19776.00
2018-08-17T12:29:28.287Z,22208.00
2018-08-17T12:30:28.208Z,21632.00
2018-08-17T12:31:28.149Z,19520.00
2018-08-17T12:32:28.077Z,18752.00
2018-08-17T12:33:28.012Z,15816.00
2018-08-17T12:34:27.908Z,13536.00
2018-08-17T12:35:27.830Z,13608.00
2018-08-17T12:36:27.829Z,15564.00
2018-08-17T12:37:27.678Z,14956.00
2018-08-17T12:38:27.602Z,16288.00
2018-08-17T12:39:27.516Z,14140.00
2018-08-17T12:40:27.457Z,13124.00
2018-08-17T12:41:27.407Z,14308.00
2018-08-17T12:42:27.290Z,18176.00
2018-08-17T12:43:27.215Z,18784.00
2018-08-17T12:44:27.144Z,19168.00
2018-08-17T12:47:09.137Z,18496.00
2018-08-17T12:48:10.086Z,17568.00
2018-08-17T12:49:08.983Z,16704.00
2018-08-17T12:50:08.906Z,13308.00
2018-08-17T12:51:08.815Z,13276.00
2018-08-17T12:52:08.791Z,14332.00
2018-08-17T12:53:08.689Z,17728.00
2018-08-17T12:54:08.619Z,16992.00
2018-08-17T12:55:08.539Z,16288.00
2018-08-17T12:57:50.644Z,12964.00
2018-08-17T12:58:50.605Z,12000.00
2018-08-17T12:59:50.478Z,11192.00
2018-08-17T13:02:32.639Z,11476.00
2018-08-17T13:03:32.606Z,12100.00
2018-08-17T13:04:32.469Z,11388.00
2018-08-17T13:05:32.438Z,9476.00
2018-08-17T13:06:32.336Z,7740.00
2018-08-17T13:09:14.645Z,7476.00
2018-08-17T13:10:14.580Z,8244.00
2018-08-17T13:11:14.478Z,8932.00
2018-08-17T13:12:14.396Z,9796.00
2018-08-17T13:13:14.347Z,10128.00
2018-08-17T13:14:14.295Z,9880.00
2018-08-17T13:15:14.169Z,8444.00
2018-08-17T13:16:14.125Z,8048.00
2018-08-17T13:17:14.050Z,7448.00
2018-08-17T13:18:13.948Z,7536.00
2018-08-17T13:19:13.886Z,8828.00
2018-08-17T13:21:56.135Z,12044.00
2018-08-17T13:22:56.084Z,12684.00
2018-08-17T13:23:55.980Z,13076.00
2018-08-17T13:24:55.944Z,12720.00
2018-08-17T13:25:55.836Z,12544.00
2018-08-17T13:28:38.145Z,13812.00
2018-08-17T13:29:38.103Z,12632.00
2018-08-17T13:30:38.026Z,10248.00
2018-08-17T13:31:37.937Z,10104.00
2018-08-17T13:32:37.839Z,10336.00
2018-08-17T13:33:37.758Z,10828.00
2018-08-17T13:34:37.694Z,11448.00
2018-08-17T13:37:19.654Z,13336.00
2018-08-17T13:38:19.571Z,13248.00
2018-08-17T13:39:19.504Z,12812.00
2018-08-17T13:40:19.431Z,12204.00
2018-08-17T13:41:19.337Z,11564.00
2018-08-17T13:44:01.641Z,9752.00
2018-08-17T13:45:02.602Z,9248.00
2018-08-17T13:46:01.489Z,8284.00
2018-08-17T13:47:01.420Z,8392.00
2018-08-17T13:48:01.356Z,8500.00
2018-08-17T13:49:01.363Z,7912.00
2018-08-17T13:50:01.220Z,7896.00
2018-08-17T13:51:01.158Z,7504.00
2018-08-17T13:52:01.035Z,7880.00
2018-08-17T13:54:43.148Z,7344.00
2018-08-17T13:55:43.106Z,7400.00
2018-08-17T13:56:43.019Z,6468.00
2018-08-17T13:57:42.918Z,5740.00
2018-08-17T13:58:42.936Z,5524.00
2018-08-17T13:59:42.975Z,5176.00
2018-08-17T14:00:42.860Z,4992.00
2018-08-17T14:01:43.719Z,4704.00
2018-08-17T14:02:43.173Z,4524.00
2018-08-17T14:03:42.468Z,4432.00
2018-08-17T14:04:42.389Z,4188.00
2018-08-17T14:05:42.318Z,4172.00
2018-08-17T14:06:42.281Z,4392.00
2018-08-17T14:07:42.173Z,4348.00
2018-08-17T14:08:42.073Z,4372.00
2018-08-17T14:09:42.024Z,4308.00
2018-08-17T14:10:41.932Z,4536.00
2018-08-17T14:11:41.866Z,4688.00
2018-08-17T14:12:41.804Z,4568.00
2018-08-17T14:13:41.715Z,3980.00
2018-08-17T14:14:41.629Z,4012.00
2018-08-17T14:15:41.584Z,3876.00